Time;durP1;ratioP1;P1;durP2;ratioP2;P2;SDS_P1;SDS_P2;PMS_P1;PMS_P2;Temp;Humidity;BMP_temperature;BMP_pressure;BME280_temperature;BME280_humidity;BME280_pressure;Samples;Min_cycle;Max_cycle;Signal;HPM_P1;HPM_P2
2022/09/06 00:00:23;;;;;;;5.10;1.70;;;;;;;13.34;47.56;101434.45;105677;1280;24003;-85
2022/09/06 00:02:51;;;;;;;3.40;1.80;;;;;;;13.33;47.65;101432.33;105085;1280;25246;-82
2022/09/06 00:05:19;;;;;;;2.30;1.70;;;;;;;13.32;47.66;101427.39;106197;1284;24307;-81
2022/09/06 00:07:46;;;;;;;3.20;1.60;;;;;;;13.33;47.89;101424.73;105123;1284;25717;-82
2022/09/06 00:10:14;;;;;;;5.00;1.90;;;;;;;13.31;47.76;101427.56;105069;1284;26671;-81
2022/09/06 00:12:41;;;;;;;3.00;2.20;;;;;;;13.26;47.70;101420.16;105415;1285;22594;-80
2022/09/06 00:15:09;;;;;;;2.90;1.50;;;;;;;13.22;47.94;101421.59;105273;1280;25873;-84
2022/09/06 00:17:36;;;;;;;2.70;1.80;;;;;;;13.20;48.04;101426.00;105673;1279;22806;-86
2022/09/06 00:20:04;;;;;;;2.00;1.50;;;;;;;13.20;47.99;101423.35;105745;1280;22520;-84
2022/09/06 00:22:31;;;;;;;4.70;1.90;;;;;;;13.18;47.99;101422.48;105960;1276;25239;-83
2022/09/06 00:24:59;;;;;;;2.90;1.60;;;;;;;13.17;47.94;101427.26;105496;1281;25254;-82
2022/09/06 00:27:27;;;;;;;2.60;1.60;;;;;;;13.16;47.96;101429.91;105505;1281;22560;-83
2022/09/06 00:29:54;;;;;;;4.20;1.80;;;;;;;13.16;47.95;101427.98;105643;1276;24254;-87
2022/09/06 00:32:21;;;;;;;5.40;1.80;;;;;;;13.17;47.85;101426.38;106153;1276;22547;-87
2022/09/06 00:34:48;;;;;;;1.60;1.50;;;;;;;13.16;47.66;101425.32;105974;1276;22525;-86
2022/09/06 00:37:16;;;;;;;3.70;1.40;;;;;;;13.11;47.54;101427.10;106654;1276;22504;-87
2022/09/06 00:39:43;;;;;;;3.30;1.70;;;;;;;13.10;47.49;101428.00;106368;1276;22474;-87
2022/09/06 00:42:11;;;;;;;3.40;1.60;;;;;;;13.10;47.56;101432.23;106666;1278;22779;-88
2022/09/06 00:44:40;;;;;;;2.60;1.20;;;;;;;13.08;47.46;101427.11;107164;1270;25281;-89
2022/09/06 00:47:07;;;;;;;2.60;1.40;;;;;;;13.07;47.44;101421.64;107264;1270;24239;-81
2022/09/06 00:49:46;;;;;;;2.50;1.50;;;;;;;13.05;47.32;101420.92;106543;1270;25203;-87
2022/09/06 00:52:18;;;;;;;3.10;1.30;;;;;;;12.99;47.38;101415.30;106036;1276;25279;-82
2022/09/06 00:54:46;;;;;;;1.50;1.30;;;;;;;12.97;47.30;101417.23;106298;1276;25319;-83
2022/09/06 00:57:15;;;;;;;3.20;1.80;;;;;;;12.97;47.48;101421.30;107062;1276;22560;-79
2022/09/06 00:59:45;;;;;;;1.60;1.40;;;;;;;12.98;47.52;101422.89;106905;1276;25479;-80
2022/09/06 01:02:13;;;;;;;3.20;1.30;;;;;;;13.00;47.56;101426.23;106973;1276;25233;-81
2022/09/06 01:04:43;;;;;;;2.00;1.60;;;;;;;13.00;47.56;101426.95;106952;1276;24458;-79
2022/09/06 01:07:37;;;;;;;1.30;1.20;;;;;;;12.99;47.51;101424.30;106464;1276;23551;-81
2022/09/06 01:10:42;;;;;;;5.60;1.60;;;;;;;12.98;47.68;101420.41;106343;1270;24681;-86
2022/09/06 01:13:33;;;;;;;2.50;1.50;;;;;;;12.99;47.68;101415.99;106307;1270;22551;-80
2022/09/06 01:16:28;;;;;;;5.30;1.60;;;;;;;12.98;47.76;101419.01;106446;1269;22525;-82
2022/09/06 01:19:01;;;;;;;3.50;1.60;;;;;;;12.94;47.82;101417.43;106456;1270;22567;-76
2022/09/06 01:21:46;;;;;;;2.00;1.20;;;;;;;12.90;47.89;101415.84;106947;1270;22543;-79
2022/09/06 01:24:55;;;;;;;6.00;1.60;;;;;;;12.86;47.91;101411.44;107283;1270;24238;-79
2022/09/06 01:28:00;;;;;;;1.40;1.20;;;;;;;12.90;47.95;101418.69;107414;1276;23116;-80
2022/09/06 01:30:32;;;;;;;4.30;1.30;;;;;;;12.86;48.09;101418.33;107220;1280;22609;-78
2022/09/06 01:33:09;;;;;;;3.50;1.40;;;;;;;12.82;48.12;101417.64;106018;1280;25257;-76
2022/09/06 01:35:53;;;;;;;1.80;1.50;;;;;;;12.83;48.33;101417.63;105756;1280;25264;-77
2022/09/06 01:38:20;;;;;;;5.20;1.00;;;;;;;12.83;48.38;101415.69;107122;1280;25264;-79
2022/09/06 01:40:47;;;;;;;3.10;1.80;;;;;;;12.81;48.36;101414.63;107442;1280;25341;-81
2022/09/06 01:43:24;;;;;;;5.30;1.50;;;;;;;12.77;48.54;101413.94;105945;1280;25616;-81
2022/09/06 01:46:33;;;;;;;2.70;1.70;;;;;;;12.74;48.57;101416.41;107493;1287;22527;-81
2022/09/06 01:49:38;;;;;;;2.10;1.50;;;;;;;12.71;48.53;101415.52;106876;1281;25447;-80
2022/09/06 01:52:24;;;;;;;2.20;1.40;;;;;;;12.69;48.79;101413.94;104946;1287;24243;-80
2022/09/06 01:55:30;;;;;;;2.70;1.20;;;;;;;12.67;48.81;101412.89;104902;1287;25384;-80
2022/09/06 01:58:23;;;;;;;2.30;1.60;;;;;;;12.65;48.89;101413.77;104782;1287;25622;-79
2022/09/06 02:01:12;;;;;;;1.80;1.20;;;;;;;12.65;49.00;101412.02;104919;1286;24261;-81
2022/09/06 02:04:14;;;;;;;2.40;1.20;;;;;;;12.63;48.94;101407.95;105622;1282;22546;-82
2022/09/06 02:06:58;;;;;;;2.70;1.80;;;;;;;12.60;48.95;101411.48;105814;1279;22577;-80
2022/09/06 02:09:29;;;;;;;4.80;1.50;;;;;;;12.57;49.05;101408.84;105584;1278;22823;-82
2022/09/06 02:11:59;;;;;;;3.60;1.50;;;;;;;12.57;49.03;101414.65;105849;1282;24013;-84
2022/09/06 02:14:42;;;;;;;3.00;1.60;;;;;;;12.48;49.09;101410.60;105868;1282;24311;-81
2022/09/06 02:17:14;;;;;;;4.40;1.50;;;;;;;12.49;49.13;101418.55;105465;1282;22520;-82
2022/09/06 02:19:48;;;;;;;2.80;1.40;;;;;;;12.48;49.25;101413.42;105531;1282;25545;-78
2022/09/06 02:22:20;;;;;;;3.00;1.50;;;;;;;12.47;49.45;101413.96;105412;1282;22591;-79
2022/09/06 02:24:51;;;;;;;2.10;1.20;;;;;;;12.44;49.64;101413.96;105337;1282;24252;-74
2022/09/06 02:27:18;;;;;;;1.60;1.40;;;;;;;12.42;49.71;101414.50;105981;1274;23012;-78
2022/09/06 02:29:45;;;;;;;2.10;1.40;;;;;;;12.43;49.86;101417.15;106104;1271;22495;-83
2022/09/06 02:32:15;;;;;;;4.60;1.80;;;;;;;12.39;50.07;101418.91;106488;1268;22526;-83
2022/09/06 02:34:45;;;;;;;1.70;1.50;;;;;;;12.32;50.38;101418.21;106038;1275;22685;-83
2022/09/06 02:37:12;;;;;;;3.90;1.70;;;;;;;12.25;50.44;101421.21;106003;1276;25377;-81
2022/09/06 02:39:39;;;;;;;6.00;2.40;;;;;;;12.22;50.53;101421.73;105933;1276;22728;-80
2022/09/06 02:42:10;;;;;;;5.70;1.90;;;;;;;12.13;50.64;101423.13;105752;1276;22550;-83
2022/09/06 02:44:37;;;;;;;3.20;2.00;;;;;;;12.04;50.93;101428.04;105854;1275;25465;-82
2022/09/06 02:47:04;;;;;;;5.80;1.80;;;;;;;12.05;50.99;101431.93;105793;1275;25244;-81
2022/09/06 02:49:32;;;;;;;5.40;1.50;;;;;;;12.03;51.10;101429.10;105931;1276;25408;-81
2022/09/06 02:51:59;;;;;;;3.10;1.70;;;;;;;11.98;51.05;101430.67;105293;1281;25630;-79
2022/09/06 02:54:26;;;;;;;2.40;1.90;;;;;;;11.90;51.18;101432.42;105984;1274;24214;-80
2022/09/06 02:56:53;;;;;;;2.90;1.80;;;;;;;11.86;51.26;101433.30;106000;1274;25235;-79
2022/09/06 02:59:20;;;;;;;2.60;1.40;;;;;;;11.84;51.38;101429.06;106139;1274;23469;-81
2022/09/06 03:01:46;;;;;;;3.00;1.70;;;;;;;11.85;51.40;101425.01;106098;1274;25373;-81
2022/09/06 03:04:14;;;;;;;5.00;1.70;;;;;;;11.87;51.41;101424.83;106055;1274;25434;-79
2022/09/06 03:06:41;;;;;;;10.50;2.10;;;;;;;11.88;51.44;101420.42;106065;1274;22546;-79
2022/09/06 03:09:09;;;;;;;4.40;1.90;;;;;;;11.86;51.58;101416.90;105936;1276;24223;-77
2022/09/06 03:11:37;;;;;;;2.30;1.60;;;;;;;11.86;51.62;101416.02;106275;1267;22528;-80
2022/09/06 03:14:04;;;;;;;3.90;1.80;;;;;;;11.85;51.74;101405.95;106246;1267;24076;-79
2022/09/06 03:16:31;;;;;;;3.00;1.90;;;;;;;11.85;51.90;101406.30;106254;1267;24276;-78
2022/09/06 03:18:58;;;;;;;2.40;1.60;;;;;;;11.81;51.81;101408.76;106268;1270;22540;-76
2022/09/06 03:21:25;;;;;;;2.10;1.50;;;;;;;11.77;51.84;101411.05;106307;1270;24228;-79
2022/09/06 03:23:53;;;;;;;5.30;2.30;;;;;;;11.74;51.95;101414.40;105970;1276;24215;-83
2022/09/06 03:26:20;;;;;;;2.80;2.30;;;;;;;11.73;52.07;101417.20;105967;1275;25255;-80
2022/09/06 03:28:49;;;;;;;3.60;1.60;;;;;;;11.76;52.12;101413.69;105929;1276;25697;-82
2022/09/06 03:31:16;;;;;;;5.40;1.80;;;;;;;11.73;52.05;101413.67;106233;1274;22602;-81
2022/09/06 03:33:43;;;;;;;2.80;1.80;;;;;;;11.74;52.12;101413.87;106152;1275;22534;-80
2022/09/06 03:36:10;;;;;;;2.30;1.80;;;;;;;11.73;52.18;101411.39;105987;1274;25255;-80
2022/09/06 03:38:37;;;;;;;4.00;2.10;;;;;;;11.74;52.47;101417.04;106081;1274;24244;-81
2022/09/06 03:41:04;;;;;;;5.00;1.80;;;;;;;11.79;52.55;101420.05;105970;1276;24433;-80
2022/09/06 03:43:31;;;;;;;2.50;1.80;;;;;;;11.84;52.56;101420.76;106446;1267;24215;-79
2022/09/06 03:45:58;;;;;;;4.30;2.10;;;;;;;11.84;52.62;101419.35;106878;1267;22537;-76
2022/09/06 03:48:27;;;;;;;3.50;1.90;;;;;;;11.85;52.81;101418.66;106328;1268;22558;-83
2022/09/06 03:50:57;;;;;;;3.70;2.10;;;;;;;11.85;52.73;101418.12;106088;1271;25306;-82
2022/09/06 03:53:26;;;;;;;4.40;2.00;;;;;;;11.82;52.60;101416.17;106388;1267;24272;-81
2022/09/06 03:55:56;;;;;;;2.30;1.90;;;;;;;11.77;52.64;101418.64;107437;1267;24327;-81
2022/09/06 03:58:27;;;;;;;3.60;2.10;;;;;;;11.74;52.85;101412.29;106968;1267;22521;-85
2022/09/06 04:01:09;;;;;;;3.60;2.20;;;;;;;11.75;52.75;101408.58;106512;1268;24072;-83
2022/09/06 04:03:38;;;;;;;6.50;2.20;;;;;;;11.73;52.72;101413.15;106458;1270;22519;-79
2022/09/06 04:06:06;;;;;;;4.80;2.40;;;;;;;11.73;52.78;101412.27;106312;1274;24262;-80
2022/09/06 04:08:34;;;;;;;5.40;2.60;;;;;;;11.76;52.98;101407.16;106017;1274;22528;-82
2022/09/06 04:11:02;;;;;;;5.20;2.40;;;;;;;11.77;53.07;101409.28;106143;1274;22542;-82
2022/09/06 04:13:30;;;;;;;3.40;1.80;;;;;;;11.78;53.02;101409.98;105871;1280;24680;-80
2022/09/06 04:15:58;;;;;;;3.70;2.20;;;;;;;11.79;52.93;101405.22;105859;1279;25391;-80
2022/09/06 04:18:29;;;;;;;5.50;2.30;;;;;;;11.81;53.02;101405.58;106066;1283;22564;-83
2022/09/06 04:20:59;;;;;;;3.90;2.20;;;;;;;11.77;52.87;101406.64;105244;1288;22563;-79
2022/09/06 04:23:28;;;;;;;10.00;2.50;;;;;;;11.76;52.97;101399.92;104903;1284;22571;-85
2022/09/06 04:25:57;;;;;;;4.30;2.30;;;;;;;11.81;52.93;101397.83;105183;1284;22864;-79
2022/09/06 04:28:25;;;;;;;5.80;2.40;;;;;;;11.84;52.90;101405.59;105008;1285;25615;-78
2022/09/06 04:30:55;;;;;;;5.10;2.60;;;;;;;11.85;52.98;101398.88;104980;1288;22605;-78
2022/09/06 04:33:28;;;;;;;6.50;2.50;;;;;;;11.85;53.07;101401.54;105107;1285;23108;-82
2022/09/06 04:35:57;;;;;;;6.10;2.40;;;;;;;11.83;52.99;101401.89;104926;1282;22886;-79
2022/09/06 04:38:26;;;;;;;8.20;2.60;;;;;;;11.87;53.13;101404.36;105351;1281;22566;-79
2022/09/06 04:40:56;;;;;;;3.10;2.00;;;;;;;11.91;52.93;101405.06;105770;1276;22592;-79
2022/09/06 04:43:23;;;;;;;7.10;2.30;;;;;;;11.90;52.91;101410.89;106010;1276;22747;-82
2022/09/06 04:45:50;;;;;;;4.70;2.60;;;;;;;11.93;52.98;101408.96;105989;1276;22556;-79
2022/09/06 04:48:18;;;;;;;4.80;2.10;;;;;;;12.02;52.86;101408.09;106092;1270;25433;-87
2022/09/06 04:50:45;;;;;;;6.20;2.30;;;;;;;12.07;52.80;101407.75;106379;1268;22532;-80
2022/09/06 04:53:12;;;;;;;4.10;2.40;;;;;;;12.06;52.82;101406.89;106409;1268;22583;-78
2022/09/06 04:55:39;;;;;;;5.10;2.30;;;;;;;12.05;52.73;101405.65;106625;1267;24271;-78
2022/09/06 04:58:06;;;;;;;5.80;2.30;;;;;;;12.09;52.71;101412.90;106444;1267;22552;-78
2022/09/06 05:00:34;;;;;;;7.80;2.30;;;;;;;12.11;52.56;101409.54;106267;1267;22551;-80
2022/09/06 05:03:01;;;;;;;7.60;2.30;;;;;;;12.16;52.48;101409.36;106433;1267;24801;-79
2022/09/06 05:05:28;;;;;;;5.20;2.50;;;;;;;12.18;52.34;101405.49;106089;1270;22538;-79
2022/09/06 05:07:56;;;;;;;7.90;2.20;;;;;;;12.16;52.17;101404.95;106530;1268;23909;-79
2022/09/06 05:10:23;;;;;;;8.00;2.10;;;;;;;12.13;52.13;101407.25;106157;1271;26508;-79
2022/09/06 05:12:52;;;;;;;4.10;2.30;;;;;;;12.14;52.28;101403.90;106391;1270;26511;-78
2022/09/06 05:15:21;;;;;;;3.60;1.90;;;;;;;12.18;52.33;101406.02;106219;1268;23406;-81
2022/09/06 05:17:48;;;;;;;5.70;2.60;;;;;;;12.17;52.16;101404.96;106501;1269;25232;-81
2022/09/06 05:20:16;;;;;;;5.70;2.30;;;;;;;12.19;52.17;101403.38;106371;1267;25228;-80
2022/09/06 05:22:52;;;;;;;5.10;1.90;;;;;;;12.21;52.40;101403.19;106568;1268;26514;-79
2022/09/06 05:25:19;;;;;;;3.00;2.00;;;;;;;12.26;52.30;101403.90;106150;1270;24236;-81
2022/09/06 05:27:46;;;;;;;4.20;2.10;;;;;;;12.30;52.17;101403.20;106291;1271;22643;-76
2022/09/06 05:30:14;;;;;;;9.50;2.70;;;;;;;12.31;51.97;101404.42;106223;1270;22813;-80
2022/09/06 05:32:41;;;;;;;3.70;2.00;;;;;;;12.32;52.08;101403.20;106219;1271;23193;-80
2022/09/06 05:35:09;;;;;;;9.80;2.60;;;;;;;12.33;52.15;101399.48;106626;1272;22539;-81
2022/09/06 05:37:36;;;;;;;9.00;2.70;;;;;;;12.33;52.04;101399.31;106602;1270;23356;-79
2022/09/06 05:40:03;;;;;;;8.30;2.10;;;;;;;12.35;52.04;101397.89;106052;1271;25327;-79
2022/09/06 05:42:30;;;;;;;7.80;2.40;;;;;;;12.37;51.98;101399.48;105966;1270;24232;-79
2022/09/06 05:44:57;;;;;;;14.20;3.00;;;;;;;12.40;52.06;101402.84;106267;1271;22532;-78
2022/09/06 05:47:25;;;;;;;9.90;3.00;;;;;;;12.41;51.96;101403.55;106092;1273;25255;-79
2022/09/06 05:49:53;;;;;;;12.00;2.50;;;;;;;12.42;51.89;101403.02;106180;1270;22542;-78
2022/09/06 05:52:20;;;;;;;10.20;2.60;;;;;;;12.43;51.76;101404.79;106052;1273;23008;-78
2022/09/06 05:54:46;;;;;;;12.30;2.30;;;;;;;12.47;51.83;101401.42;106127;1270;22540;-78
2022/09/06 05:57:13;;;;;;;8.10;2.50;;;;;;;12.52;51.90;101399.64;106108;1271;22532;-77
2022/09/06 05:59:40;;;;;;;7.50;2.60;;;;;;;12.58;51.78;101398.59;105971;1273;22695;-78
2022/09/06 06:02:07;;;;;;;8.10;2.40;;;;;;;12.65;51.72;101400.70;105651;1276;25235;-76
2022/09/06 06:04:34;;;;;;;8.50;2.40;;;;;;;12.69;51.70;101398.74;105605;1276;25333;-78
2022/09/06 06:07:01;;;;;;;13.30;2.60;;;;;;;12.74;51.40;101401.55;105764;1276;23957;-81
2022/09/06 06:09:28;;;;;;;10.80;2.80;;;;;;;12.78;51.32;101397.84;105812;1276;25441;-76
2022/09/06 06:11:55;;;;;;;8.00;2.30;;;;;;;12.84;51.14;101395.01;105789;1276;25366;-75
2022/09/06 06:14:22;;;;;;;9.30;2.10;;;;;;;12.85;50.86;101391.81;105265;1281;22714;-78
2022/09/06 06:16:49;;;;;;;8.80;2.60;;;;;;;12.91;50.85;101391.64;105372;1281;23925;-79
2022/09/06 06:19:16;;;;;;;10.80;3.20;;;;;;;12.96;50.73;101396.55;105576;1282;22697;-77
2022/09/06 06:21:43;;;;;;;11.30;3.30;;;;;;;12.98;50.68;101397.26;105956;1276;24782;-78
2022/09/06 06:24:09;;;;;;;9.60;2.40;;;;;;;13.02;50.62;101399.02;105999;1276;25371;-78
2022/09/06 06:26:37;;;;;;;3.90;2.30;;;;;;;13.08;50.44;101401.48;105843;1276;22658;-84
2022/09/06 06:29:06;;;;;;;10.50;2.80;;;;;;;13.12;50.37;101399.17;105812;1275;25027;-81
2022/09/06 06:31:35;;;;;;;9.70;2.70;;;;;;;13.16;50.31;101402.50;105970;1274;22699;-78
2022/09/06 06:34:03;;;;;;;10.10;2.50;;;;;;;13.20;50.21;101404.43;106206;1271;25361;-81
2022/09/06 06:36:33;;;;;;;8.80;2.30;;;;;;;13.26;50.12;101406.36;106218;1270;24721;-77
2022/09/06 06:39:02;;;;;;;6.00;2.20;;;;;;;13.32;49.91;101401.38;106327;1273;22546;-79
2022/09/06 06:41:31;;;;;;;5.50;2.30;;;;;;;13.37;49.68;101402.60;106295;1271;22541;-78
2022/09/06 06:44:02;;;;;;;10.00;1.90;;;;;;;13.43;49.56;101400.63;106250;1271;22542;-77
2022/09/06 06:46:35;;;;;;;7.90;2.50;;;;;;;13.50;49.39;101401.84;106105;1270;22753;-80
2022/09/06 06:49:02;;;;;;;7.10;2.00;;;;;;;13.56;49.24;101404.31;106122;1270;25408;-78
2022/09/06 06:51:32;;;;;;;5.80;2.10;;;;;;;13.63;49.07;101404.09;106141;1270;24775;-79
2022/09/06 06:54:00;;;;;;;7.60;2.10;;;;;;;13.69;48.76;101404.77;106168;1272;26486;-78
2022/09/06 06:56:36;;;;;;;8.80;2.00;;;;;;;13.73;48.52;101409.88;106280;1270;22547;-80
2022/09/06 06:59:04;;;;;;;;;;;;;;;13.81;48.53;101414.61;106453;1270;22518;-75
2022/09/06 07:01:32;;;;;;;10.00;1.80;;;;;;;13.87;48.06;101414.76;106471;1270;22847;-77
2022/09/06 07:04:00;;;;;;;6.10;1.60;;;;;;;13.93;47.57;101414.90;106261;1270;23608;-77
2022/09/06 07:06:28;;;;;;;7.40;1.80;;;;;;;13.99;47.23;101413.09;106575;1268;24243;-78
2022/09/06 07:09:17;;;;;;;2.50;1.60;;;;;;;14.06;47.12;101415.16;107204;1268;22564;-77
2022/09/06 07:11:45;;;;;;;6.40;1.50;;;;;;;14.14;46.82;101417.41;107333;1270;23335;-78
2022/09/06 07:14:12;;;;;;;5.90;1.70;;;;;;;14.21;46.35;101420.89;106362;1268;23470;-78
2022/09/06 07:16:39;;;;;;;3.00;1.60;;;;;;;14.29;46.18;101419.94;106138;1269;22606;-80
2022/09/06 07:19:06;;;;;;;3.00;1.40;;;;;;;14.35;45.45;101423.44;106174;1270;24332;-79
2022/09/06 07:21:33;;;;;;;2.90;1.10;;;;;;;14.40;45.10;101416.66;106252;1273;22690;-76
2022/09/06 07:24:08;;;;;;;1.40;1.10;;;;;;;14.45;44.99;101420.52;106307;1268;22799;-80
2022/09/06 07:26:37;;;;;;;3.60;1.10;;;;;;;14.55;44.91;101416.89;106232;1271;25458;-79
2022/09/06 07:29:07;;;;;;;2.20;1.20;;;;;;;14.62;44.66;101417.89;106460;1270;22540;-79
2022/09/06 07:31:36;;;;;;;2.20;1.00;;;;;;;14.70;44.45;101418.15;106505;1268;24240;-78
2022/09/06 07:34:26;;;;;;;1.10;0.90;;;;;;;14.77;44.04;101419.70;106181;1270;22532;-79
2022/09/06 07:36:55;;;;;;;1.50;1.20;;;;;;;14.83;43.86;101418.23;106420;1268;22541;-76
2022/09/06 07:39:22;;;;;;;4.50;1.40;;;;;;;14.89;43.16;101416.95;106149;1273;22540;-81
2022/09/06 07:41:49;;;;;;;4.20;1.10;;;;;;;14.93;43.22;101415.11;106196;1270;22582;-81
2022/09/06 07:44:16;;;;;;;2.40;1.30;;;;;;;15.01;43.05;101411.50;106148;1270;25337;-78
2022/09/06 07:46:43;;;;;;;4.60;1.10;;;;;;;15.10;42.80;101411.38;105733;1278;22633;-79
2022/09/06 07:49:10;;;;;;;3.80;1.10;;;;;;;15.19;42.88;101412.70;105714;1276;25256;-82
2022/09/06 07:51:37;;;;;;;3.10;1.20;;;;;;;15.29;42.84;101405.48;105813;1276;24508;-79
2022/09/06 07:54:05;;;;;;;2.40;0.90;;;;;;;15.39;42.23;101403.05;105805;1276;22560;-76
2022/09/06 07:56:52;;;;;;;4.90;1.50;;;;;;;15.50;42.16;101402.89;106272;1276;27032;-76
2022/09/06 07:59:19;;;;;;;1.70;1.00;;;;;;;15.59;42.07;101403.84;105907;1276;22816;-76
2022/09/06 08:01:47;;;;;;;5.50;1.40;;;;;;;15.71;41.60;101407.77;106117;1278;22734;-80
2022/09/06 08:04:14;;;;;;;2.40;0.90;;;;;;;15.80;41.59;101407.27;105809;1276;25361;-78
2022/09/06 08:06:47;;;;;;;2.20;1.20;;;;;;;15.91;41.12;101405.51;105881;1278;22525;-79
2022/09/06 08:09:34;;;;;;;1.80;1.00;;;;;;;16.06;40.68;101403.73;105664;1276;22827;-79
2022/09/06 08:12:05;;;;;;;1.80;0.90;;;;;;;16.17;40.46;101402.48;106579;1271;22560;-77
2022/09/06 08:14:34;;;;;;;1.50;0.90;;;;;;;16.29;40.03;101403.36;109213;1268;22481;-79
2022/09/06 08:17:02;;;;;;;2.50;0.90;;;;;;;16.45;40.32;101396.88;106346;1271;22855;-79
2022/09/06 08:19:28;;;;;;;3.90;0.80;;;;;;;16.60;40.05;101398.55;106368;1270;25236;-78
2022/09/06 08:21:55;;;;;;;3.10;0.90;;;;;;;16.76;39.40;101398.08;106269;1270;25242;-78
2022/09/06 08:24:22;;;;;;;1.80;0.70;;;;;;;16.90;38.80;101397.83;106277;1273;22667;-78
2022/09/06 08:26:49;;;;;;;4.50;1.10;;;;;;;17.02;38.60;101402.55;106315;1269;22572;-79
2022/09/06 08:29:17;;;;;;;1.20;0.70;;;;;;;17.13;38.30;101401.48;106626;1270;22547;-78
2022/09/06 08:31:45;;;;;;;1.30;1.00;;;;;;;17.24;37.71;101400.00;106275;1270;22522;-81
2022/09/06 08:34:13;;;;;;;2.60;1.00;;;;;;;17.35;37.75;101397.13;106156;1271;25332;-80
2022/09/06 08:36:42;;;;;;;8.00;1.10;;;;;;;17.46;37.45;101390.84;106286;1273;22585;-80
2022/09/06 08:39:10;;;;;;;2.80;0.80;;;;;;;17.57;36.91;101387.02;106262;1270;24336;-79
2022/09/06 08:42:18;;;;;;;2.60;1.00;;;;;;;17.70;37.01;101386.56;106026;1273;22845;-79
2022/09/06 08:44:47;;;;;;;1.70;0.80;;;;;;;17.86;36.78;101384.05;105809;1276;22584;-80
2022/09/06 08:47:23;;;;;;;7.00;0.90;;;;;;;17.99;36.61;101380.55;105701;1279;25573;-79
2022/09/06 08:49:51;;;;;;;2.40;0.90;;;;;;;18.12;36.69;101377.39;106540;1279;25620;-78
2022/09/06 08:52:26;;;;;;;4.70;1.10;;;;;;;18.27;36.55;101372.05;106159;1279;22727;-82
2022/09/06 08:55:11;;;;;;;2.10;0.90;;;;;;;18.42;36.18;101369.86;105930;1277;25074;-80
2022/09/06 08:58:19;;;;;;;4.80;0.90;;;;;;;18.56;35.85;101369.50;105790;1279;22547;-80
2022/09/06 09:00:57;;;;;;;3.50;0.70;;;;;;;18.72;35.72;101373.53;105133;1284;22565;-80
2022/09/06 09:03:42;;;;;;;1.90;0.60;;;;;;;18.88;35.37;101369.17;105180;1285;24351;-79
2022/09/06 09:06:09;;;;;;;4.50;0.80;;;;;;;18.99;34.76;101365.81;105215;1284;22652;-79
2022/09/06 09:08:55;;;;;;;0.80;0.60;;;;;;;19.09;34.73;101362.88;105493;1281;26545;-78
2022/09/06 09:11:24;;;;;;;1.10;0.80;;;;;;;19.19;34.41;101356.15;105387;1281;22665;-77
2022/09/06 09:13:51;;;;;;;1.70;0.80;;;;;;;19.32;34.20;101352.75;105437;1281;25716;-78
2022/09/06 09:16:21;;;;;;;2.20;1.00;;;;;;;19.45;34.04;101351.27;105804;1274;22554;-80
2022/09/06 09:18:52;;;;;;;1.00;0.80;;;;;;;19.59;34.07;101349.58;105937;1269;25737;-79
2022/09/06 09:21:22;;;;;;;1.60;0.80;;;;;;;19.77;33.71;101342.58;106255;1268;22527;-79
2022/09/06 09:24:02;;;;;;;1.90;0.70;;;;;;;19.88;33.34;101341.16;106330;1268;23389;-77
2022/09/06 09:26:35;;;;;;;1.20;0.60;;;;;;;19.95;33.34;101341.98;106286;1270;24075;-81
2022/09/06 09:29:08;;;;;;;0.60;0.50;;;;;;;20.13;33.17;101337.31;106600;1269;22553;-81
2022/09/06 09:32:02;;;;;;;1.70;0.70;;;;;;;20.28;32.62;101336.29;106126;1274;22566;-83
2022/09/06 09:34:39;;;;;;;2.30;0.90;;;;;;;20.45;32.36;101333.17;106393;1271;22553;-80
2022/09/06 09:37:38;;;;;;;1.50;0.60;;;;;;;20.58;32.46;101329.14;106339;1270;22547;-75
2022/09/06 09:40:18;;;;;;;3.30;0.80;;;;;;;20.65;32.31;101322.64;106460;1269;22547;-78
2022/09/06 09:42:45;;;;;;;2.30;0.90;;;;;;;20.83;32.28;101326.64;106351;1268;22552;-80
2022/09/06 09:45:23;;;;;;;2.90;0.70;;;;;;;20.99;31.99;101325.90;106364;1273;22571;-80
2022/09/06 09:47:50;;;;;;;1.30;1.10;;;;;;;21.14;31.45;101320.13;106331;1274;26701;-76
2022/09/06 09:50:44;;;;;;;3.40;1.00;;;;;;;21.32;31.06;101320.14;106410;1271;24347;-79
2022/09/06 09:53:14;;;;;;;1.10;0.80;;;;;;;21.44;30.63;101310.90;106433;1271;24228;-76
2022/09/06 09:55:42;;;;;;;3.10;1.60;;;;;;;21.53;30.50;101304.98;106378;1268;24320;-80
2022/09/06 09:58:28;;;;;;;2.20;0.80;;;;;;;21.64;30.33;101303.83;106154;1273;22585;-79
2022/09/06 10:01:18;;;;;;;2.40;0.60;;;;;;;21.79;30.03;101306.29;106369;1273;22594;-77
2022/09/06 10:03:45;;;;;;;5.10;0.80;;;;;;;21.76;29.91;101303.88;106654;1270;24278;-79
2022/09/06 10:06:32;;;;;;;0.80;0.60;;;;;;;21.80;30.09;101302.66;106781;1270;22811;-79
2022/09/06 10:09:45;;;;;;;1.40;0.80;;;;;;;21.98;30.14;101290.06;106817;1271;24236;-81
2022/09/06 10:12:40;;;;;;;4.00;0.70;;;;;;;22.25;29.76;101294.50;106656;1269;24233;-79
2022/09/06 10:15:30;;;;;;;1.60;0.70;;;;;;;22.45;29.40;101293.26;106183;1271;22522;-78
2022/09/06 10:17:57;;;;;;;2.10;0.60;;;;;;;22.52;28.93;101288.97;106333;1271;22538;-79
2022/09/06 10:21:11;;;;;;;4.20;0.90;;;;;;;22.62;28.79;101282.09;106020;1274;25352;-78
2022/09/06 10:24:07;;;;;;;4.30;0.80;;;;;;;22.83;28.89;101276.48;105387;1282;22585;-79
2022/09/06 10:26:59;;;;;;;4.20;1.00;;;;;;;23.05;28.56;101269.53;105418;1281;22559;-76
2022/09/06 10:29:57;;;;;;;1.20;1.00;;;;;;;23.21;28.27;101265.36;105440;1281;22605;-80
2022/09/06 10:32:41;;;;;;;1.00;0.70;;;;;;;23.46;28.24;101261.30;104978;1287;22653;-78
2022/09/06 10:35:19;;;;;;;1.30;0.90;;;;;;;23.60;28.04;101263.27;104948;1286;22589;-80
2022/09/06 10:38:05;;;;;;;1.70;0.70;;;;;;;23.80;27.85;101267.51;104863;1284;23444;-76
2022/09/06 10:40:34;;;;;;;;;;;;;;;23.96;27.14;101265.11;105512;1283;22670;-78
2022/09/06 10:43:04;;;;;;;1.80;0.80;;;;;;;24.07;26.69;101264.16;105356;1283;25675;-79
2022/09/06 10:45:56;;;;;;;2.30;1.00;;;;;;;24.13;26.31;101265.29;105532;1283;23785;-77
2022/09/06 10:48:34;;;;;;;2.50;0.60;;;;;;;24.12;26.62;101266.27;105938;1284;22765;-79
2022/09/06 10:51:10;;;;;;;0.40;0.40;;;;;;;24.20;26.71;101262.45;105685;1283;23199;-79
2022/09/06 10:53:57;;;;;;;2.50;0.80;;;;;;;24.29;26.25;101259.11;105758;1283;24371;-77
2022/09/06 10:57:05;;;;;;;2.80;0.70;;;;;;;24.37;26.11;101261.89;106918;1277;22975;-75
2022/09/06 10:59:35;;;;;;;1.40;0.70;;;;;;;24.53;26.18;101254.96;106550;1277;25256;-79
2022/09/06 11:02:38;;;;;;;3.20;0.60;;;;;;;24.56;25.58;101246.66;106271;1278;25412;-79
2022/09/06 11:05:35;;;;;;;0.70;0.50;;;;;;;24.27;25.05;101242.62;106476;1278;25274;-80
2022/09/06 11:08:07;;;;;;;3.30;0.50;;;;;;;24.29;25.44;101238.77;106065;1278;22685;-77
2022/09/06 11:10:54;;;;;;;3.20;0.70;;;;;;;24.45;25.64;101244.03;107221;1271;22770;-78
2022/09/06 11:13:25;;;;;;;1.70;0.60;;;;;;;24.59;25.60;101235.90;107290;1268;23848;-78
2022/09/06 11:16:12;;;;;;;3.30;0.60;;;;;;;24.78;25.16;101231.61;107369;1271;22833;-79
2022/09/06 11:19:17;;;;;;;2.40;0.80;;;;;;;24.94;24.75;101228.77;106619;1272;22577;-80
2022/09/06 11:21:53;;;;;;;2.40;0.80;;;;;;;25.03;24.63;101227.94;106006;1275;24235;-78
2022/09/06 11:24:59;;;;;;;3.60;0.70;;;;;;;25.13;24.79;101227.67;106115;1274;24279;-78
2022/09/06 11:27:29;;;;;;;1.70;0.70;;;;;;;25.23;24.22;101225.30;105733;1281;24244;-79
2022/09/06 11:29:59;;;;;;;0.60;0.60;;;;;;;25.32;23.77;101222.64;105078;1288;26524;-80
2022/09/06 11:32:48;;;;;;;0.70;0.70;;;;;;;25.67;24.20;101216.48;104982;1286;22548;-77
2022/09/06 11:35:34;;;;;;;4.10;1.00;;;;;;;25.91;23.48;101212.70;104893;1288;24320;-78
2022/09/06 11:38:16;;;;;;;1.70;0.50;;;;;;;25.94;23.11;101219.92;104246;1291;24233;-79
2022/09/06 11:40:47;;;;;;;0.50;0.50;;;;;;;25.93;22.81;101214.00;104319;1291;26541;-78
2022/09/06 11:43:42;;;;;;;1.60;0.70;;;;;;;25.94;23.15;101212.14;102904;1294;1675937;-79
2022/09/06 11:46:09;;;;;;;0.80;0.50;;;;;;;26.06;22.97;101205.33;104846;1289;22588;-79